Provo, UT (84603)

6:46 PM MDT on September 30, 2014 (GMT -0600)
Snake Hill Farm | Change Station
CLOSE
Current Station
Personal Weather Station
Location: Orem, UT
Elevation: 4741 ft
Nearby Weather Stations

Elev 4741 ft 40.26 °N, 111.69 °W | Updated 4 seconds ago

Mostly Cloudy
Mostly Cloudy
57.0 °F
Feels Like 57.0 °F
N
0.9
Wind Variable Wind from North
Gusts 2.0 mph

Today
High -- | Low -- °F
--% Chance of Precip.
Yesterday
High -- | Low -- °F
Precip. -- in
7:22 AM 7:10 PM
Waxing Crescent, 41% visible
Pressure 29.93 in
Visibility 10.0 miles
Clouds Scattered Clouds 6000 ft
Mostly Cloudy 8000 ft
Dew Point 47 °F
Humidity 68%
Rainfall 0.07 in
Snow Depth 1 in , 0 in , 0 in
UV 1 out of 12
Pollen 3.70 out of 12
Air Quality Not available.
Flu Activity Not available.
METAR KPVU 302248Z 32004KT 10SM SCT060 BKN080 16/07 A2993

More Conditions Fewer Conditions

Pressure 29.93 in
Visibility 10.0 miles
Clouds Scattered Clouds 6000 ft
Mostly Cloudy 8000 ft
Dew Point 47 °F
Humidity 68%
Rainfall 0.07 in
Snow Depth 1 in , 0 in , 0 in
UV 1 out of 12
Pollen 3.70 out of 12
Air Quality Not available.
Flu Activity Not available.
METAR KPVU 302248Z 32004KT 10SM SCT060 BKN080 16/07 A2993

More Conditions Fewer Conditions

10-Day Weather Forecast

Almanac

Astronomy

Sep. 30, 2014 Rise Set
Actual Time 7:22 AM MDT 7:10 PM MDT
Civil Twilight 6:55 AM MDT 7:37 PM MDT
Nautical Twilight 6:23 AM MDT 8:09 PM MDT
Astronomical Twilight 5:51 AM MDT 8:40 PM MDT
Moon 1:34 PM MDT (9/30) 11:44 PM MDT (9/30)
Length of Visible Light 12h 42m
Length of Day
11h 48m
Tomorrow will be 2m 37s shorter.
Waxing Crescent, 41% of the Moon is Illuminated
Today
Waxing Crescent
Oct 1
First Quarter
Oct 8
Full
Oct 15
Last Quarter
Oct 23
New

Today's Extremes

State Highs State Lows

Community

WunderPhotos

Upload Photos

1,757,801 photos uploaded!

Nearby

Snow Depth

Station Depth Elevation
Ben Lomond Peak 1 in 8000 ft
Strawberry Divide 0 in 8400 ft
Rock Creek 0 in 7900 ft
Thaynes Canyon 0 in 9200 ft
Agua Canyon 0 in 8900 ft

Earthquake Activity

City Distance Mag. Time & Date
No recent earthquake activity has been reported nearby.
Minimum magnitude displayed is 2.5.

Coastal Water Temperatures

Place Temperature
No Stations Reporting

Nearby Weather Stations